Time;durP1;ratioP1;P1;durP2;ratioP2;P2;SDS_P1;SDS_P2;PMS_P1;PMS_P2;Temp;Humidity;BMP_temperature;BMP_pressure;BME280_temperature;BME280_humidity;BME280_pressure;Samples;Min_cycle;Max_cycle;Signal;HPM_P1;HPM_P2
2023/10/31 00:00:04;;;;;;;;;;;10.20;99.90;;;;;;5108428;27;19928;-76
2023/10/31 00:02:32;;;;;;;;;;;10.20;99.90;;;;;;5097621;27;20449;-77
2023/10/31 00:05:04;;;;;;;;;;;10.20;99.90;;;;;;5094212;27;20604;-77
2023/10/31 00:07:31;;;;;;;;;;;10.20;99.90;;;;;;5082093;27;20018;-77
2023/10/31 00:10:06;;;;;;;;;;;10.20;99.90;;;;;;5056691;27;19950;-78
2023/10/31 00:12:34;;;;;;;;;;;10.20;99.90;;;;;;5102896;27;20106;-76
2023/10/31 00:15:01;;;;;;;;;;;10.20;99.90;;;;;;5096280;27;19931;-76
2023/10/31 00:17:28;;;;;;;;;;;10.20;99.90;;;;;;5078871;27;19932;-78
2023/10/31 00:20:00;;;;;;;;;;;10.20;99.90;;;;;;5080895;27;19938;-77
2023/10/31 00:22:25;;;;;;;;;;;10.20;99.90;;;;;;5119109;27;19984;-77
2023/10/31 00:24:54;;;;;;;;;;;10.20;99.90;;;;;;5131814;27;19946;-76
2023/10/31 00:27:24;;;;;;;;;;;10.20;99.90;;;;;;5151183;27;19930;-77
2023/10/31 00:29:51;;;;;;;;;;;10.20;99.90;;;;;;5117746;27;19984;-76
2023/10/31 00:32:16;;;;;;;;;;;10.20;99.90;;;;;;5104943;27;19930;-76
2023/10/31 00:34:45;;;;;;;;;;;10.20;99.90;;;;;;5133672;27;19927;-76
2023/10/31 00:37:12;;;;;;;;;;;10.20;99.90;;;;;;5115228;27;19922;-75
2023/10/31 00:39:38;;;;;;;;;;;10.20;99.90;;;;;;5117718;27;19926;-77
2023/10/31 00:42:03;;;;;;;;;;;10.20;99.90;;;;;;5118286;27;19934;-77
2023/10/31 00:44:29;;;;;;;;;;;10.20;99.90;;;;;;5131700;27;19989;-77
2023/10/31 00:46:55;;;;;;;;;;;10.20;99.90;;;;;;5130903;27;19965;-77
2023/10/31 00:49:26;;;;;;;;;;;10.20;99.90;;;;;;5120472;27;20039;-77
2023/10/31 00:52:00;;;;;;;;;;;10.20;99.90;;;;;;5135812;27;19931;-76
2023/10/31 00:54:26;;;;;;;;;;;10.20;99.90;;;;;;5129827;27;19931;-77
2023/10/31 00:56:52;;;;;;;;;;;10.20;99.90;;;;;;5149221;27;20018;-77
2023/10/31 00:59:17;;;;;;;;;;;10.20;99.90;;;;;;5130096;27;20063;-77
2023/10/31 01:01:43;;;;;;;;;;;10.20;99.90;;;;;;5118704;27;20389;-76
2023/10/31 01:04:11;;;;;;;;;;;10.30;99.90;;;;;;5115163;27;19931;-77
2023/10/31 01:06:43;;;;;;;;;;;10.30;99.90;;;;;;5139184;27;20407;-77
2023/10/31 01:09:09;;;;;;;;;;;10.30;99.90;;;;;;5118826;27;19933;-76
2023/10/31 01:11:35;;;;;;;;;;;10.40;99.90;;;;;;5114265;27;20267;-77
2023/10/31 01:14:00;;;;;;;;;;;10.40;99.90;;;;;;5130447;27;19927;-76
2023/10/31 01:16:26;;;;;;;;;;;10.40;99.90;;;;;;5117904;27;19929;-77
2023/10/31 01:18:52;;;;;;;;;;;10.40;99.90;;;;;;5114749;27;19927;-76
2023/10/31 01:21:17;;;;;;;;;;;10.40;99.90;;;;;;5130909;27;19944;-77
2023/10/31 01:23:43;;;;;;;;;;;10.40;99.90;;;;;;5105014;27;20270;-77
2023/10/31 01:26:09;;;;;;;;;;;10.50;99.90;;;;;;5117689;27;19926;-76
2023/10/31 01:28:34;;;;;;;;;;;10.50;99.90;;;;;;5130095;27;19976;-77
2023/10/31 01:31:00;;;;;;;;;;;10.50;99.90;;;;;;5133647;27;20300;-76
2023/10/31 01:33:26;;;;;;;;;;;10.50;99.90;;;;;;5119518;27;19958;-76
2023/10/31 01:35:52;;;;;;;;;;;10.50;99.90;;;;;;5118395;27;20389;-76
2023/10/31 01:38:18;;;;;;;;;;;10.50;99.90;;;;;;5133253;27;20034;-76
2023/10/31 01:40:43;;;;;;;;;;;10.50;99.90;;;;;;5130430;27;19999;-76
2023/10/31 01:43:10;;;;;;;;;;;10.50;99.90;;;;;;5104212;27;19927;-76
2023/10/31 01:45:36;;;;;;;;;;;10.50;99.90;;;;;;5121907;27;19931;-76
2023/10/31 01:48:02;;;;;;;;;;;10.50;99.90;;;;;;5131299;27;19934;-76
2023/10/31 01:50:28;;;;;;;;;;;10.50;99.90;;;;;;5131092;27;19923;-76
2023/10/31 01:52:54;;;;;;;;;;;10.50;99.90;;;;;;5116895;27;19926;-76
2023/10/31 01:55:21;;;;;;;;;;;10.50;99.90;;;;;;5150131;27;19927;-76
2023/10/31 01:57:48;;;;;;;;;;;10.50;99.90;;;;;;5100613;27;19931;-76
2023/10/31 02:00:14;;;;;;;;;;;10.60;99.90;;;;;;5128498;27;19923;-76
2023/10/31 02:02:41;;;;;;;;;;;10.50;99.90;;;;;;5117749;27;19927;-77
2023/10/31 02:05:10;;;;;;;;;;;10.50;99.90;;;;;;5149196;27;19980;-75
2023/10/31 02:07:36;;;;;;;;;;;10.50;99.90;;;;;;5131036;27;19978;-77
2023/10/31 02:10:01;;;;;;;;;;;10.50;99.90;;;;;;5128950;27;21482;-76
2023/10/31 02:12:37;;;;;;;;;;;10.50;99.90;;;;;;5132952;27;19934;-76
2023/10/31 02:15:03;;;;;;;;;;;10.50;99.90;;;;;;5145007;27;20061;-76
2023/10/31 02:17:29;;;;;;;;;;;10.60;99.90;;;;;;5131148;27;19945;-77
2023/10/31 02:20:00;;;;;;;;;;;10.60;99.90;;;;;;5117339;27;19980;-76
2023/10/31 02:22:27;;;;;;;;;;;10.60;99.90;;;;;;5132808;27;19983;-76
2023/10/31 02:24:52;;;;;;;;;;;10.60;99.90;;;;;;5130810;27;20272;-76
2023/10/31 02:27:18;;;;;;;;;;;10.60;99.90;;;;;;5118800;27;19927;-75
2023/10/31 02:29:43;;;;;;;;;;;10.60;99.90;;;;;;5103001;27;19930;-77
2023/10/31 02:32:09;;;;;;;;;;;10.60;99.90;;;;;;5149424;27;19927;-77
2023/10/31 02:34:35;;;;;;;;;;;10.60;99.90;;;;;;5147315;27;20008;-75
2023/10/31 02:37:01;;;;;;;;;;;10.60;99.90;;;;;;5118876;27;19971;-76
2023/10/31 02:39:33;;;;;;;;;;;10.50;99.90;;;;;;5132468;27;19942;-77
2023/10/31 02:41:59;;;;;;;;;;;10.50;99.90;;;;;;5136019;27;19923;-77
2023/10/31 02:44:24;;;;;;;;;;;10.50;99.90;;;;;;5135081;27;19930;-77
2023/10/31 02:46:50;;;;;;;;;;;10.50;99.90;;;;;;5102024;27;19961;-77
2023/10/31 02:49:19;;;;;;;;;;;10.50;99.90;;;;;;5118303;27;20019;-76
2023/10/31 02:51:44;;;;;;;;;;;10.50;99.90;;;;;;5129903;27;20331;-76
2023/10/31 02:54:10;;;;;;;;;;;10.60;99.90;;;;;;5132555;27;19934;-76
2023/10/31 02:56:37;;;;;;;;;;;10.60;99.90;;;;;;5130316;27;19930;-76
2023/10/31 02:59:03;;;;;;;;;;;10.60;99.90;;;;;;5111606;27;19966;-76
2023/10/31 03:01:29;;;;;;;;;;;10.60;99.90;;;;;;5148814;27;20018;-77
2023/10/31 03:03:55;;;;;;;;;;;10.60;99.90;;;;;;5136121;27;19999;-76
2023/10/31 03:06:21;;;;;;;;;;;10.60;99.90;;;;;;5145792;27;20419;-76
2023/10/31 03:08:50;;;;;;;;;;;10.60;99.90;;;;;;5135578;27;19961;-76
2023/10/31 03:11:22;;;;;;;;;;;10.60;99.90;;;;;;5146717;27;20017;-76
2023/10/31 03:13:48;;;;;;;;;;;10.60;99.90;;;;;;5129984;27;19934;-77
2023/10/31 03:16:14;;;;;;;;;;;10.60;99.90;;;;;;5128532;27;19953;-76
2023/10/31 03:18:39;;;;;;;;;;;10.60;99.90;;;;;;5112596;27;19923;-77
2023/10/31 03:21:05;;;;;;;;;;;10.60;99.90;;;;;;5129494;27;19946;-77
2023/10/31 03:23:31;;;;;;;;;;;10.50;99.90;;;;;;5135809;27;19934;-77
2023/10/31 03:25:57;;;;;;;;;;;10.50;99.90;;;;;;5118491;27;20186;-78
2023/10/31 03:28:25;;;;;;;;;;;10.50;99.90;;;;;;5134651;27;19927;-77
2023/10/31 03:30:51;;;;;;;;;;;10.50;99.90;;;;;;5134949;27;19926;-77
2023/10/31 03:33:17;;;;;;;;;;;10.50;99.90;;;;;;5126938;27;20476;-77
2023/10/31 03:35:43;;;;;;;;;;;10.60;99.90;;;;;;5126560;27;20658;-78
2023/10/31 03:38:08;;;;;;;;;;;10.40;99.90;;;;;;5128450;27;19922;-77
2023/10/31 03:40:35;;;;;;;;;;;10.50;99.90;;;;;;5130626;27;19979;-77
2023/10/31 03:43:01;;;;;;;;;;;10.50;99.90;;;;;;5119455;27;19927;-77
2023/10/31 03:45:26;;;;;;;;;;;10.50;99.90;;;;;;5112311;27;20429;-77
2023/10/31 03:47:52;;;;;;;;;;;10.50;99.90;;;;;;5118109;27;20132;-76
2023/10/31 03:50:18;;;;;;;;;;;10.50;99.90;;;;;;5135854;27;19927;-77
2023/10/31 03:52:43;;;;;;;;;;;10.60;99.90;;;;;;5119164;27;19972;-77
2023/10/31 03:55:09;;;;;;;;;;;10.60;99.90;;;;;;5117473;27;19933;-78
2023/10/31 03:57:35;;;;;;;;;;;10.60;99.90;;;;;;5132852;27;19933;-77
2023/10/31 04:00:00;;;;;;;;;;;10.60;99.90;;;;;;5105027;27;19934;-77
2023/10/31 04:02:26;;;;;;;;;;;10.60;99.90;;;;;;5150476;27;19923;-77
2023/10/31 04:04:52;;;;;;;;;;;10.70;99.90;;;;;;5123875;27;19956;-77
2023/10/31 04:07:18;;;;;;;;;;;10.70;99.90;;;;;;5107509;27;20395;-76
2023/10/31 04:09:43;;;;;;;;;;;11.50;99.90;;;;;;5132987;27;20315;-78
2023/10/31 04:12:09;;;;;;;;;;;10.70;99.90;;;;;;5119452;27;19926;-77
2023/10/31 04:14:40;;;;;;;;;;;10.70;99.90;;;;;;5123611;27;20499;-77
2023/10/31 04:17:06;;;;;;;;;;;10.70;99.90;;;;;;5132726;27;20058;-77
2023/10/31 04:19:31;;;;;;;;;;;10.70;99.90;;;;;;5150278;27;20290;-77
2023/10/31 04:21:57;;;;;;;;;;;10.70;99.90;;;;;;5149566;27;20316;-78
2023/10/31 04:24:24;;;;;;;;;;;10.70;99.90;;;;;;5121652;27;19930;-77
2023/10/31 04:26:49;;;;;;;;;;;10.80;99.90;;;;;;5118889;27;20059;-78
2023/10/31 04:29:15;;;;;;;;;;;10.80;99.90;;;;;;5122457;27;20018;-77
2023/10/31 04:31:41;;;;;;;;;;;10.80;99.90;;;;;;5133003;27;19923;-77
2023/10/31 04:34:06;;;;;;;;;;;10.80;99.90;;;;;;5117033;27;19923;-78
2023/10/31 04:36:32;;;;;;;;;;;10.80;99.90;;;;;;5151967;27;20014;-78
2023/10/31 04:38:58;;;;;;;;;;;10.80;99.90;;;;;;5106088;27;20011;-78
2023/10/31 04:41:24;;;;;;;;;;;10.80;99.90;;;;;;5134390;27;19927;-78
2023/10/31 04:43:50;;;;;;;;;;;10.80;99.90;;;;;;5103810;27;19930;-77
2023/10/31 04:46:16;;;;;;;;;;;10.80;99.90;;;;;;5135160;27;19931;-77
2023/10/31 04:48:42;;;;;;;;;;;10.80;99.90;;;;;;5126387;27;20041;-77
2023/10/31 04:51:10;;;;;;;;;;;10.80;99.90;;;;;;5151927;27;20034;-77
2023/10/31 04:53:35;;;;;;;;;;;10.80;99.90;;;;;;5132501;27;20014;-78
2023/10/31 04:56:01;;;;;;;;;;;10.80;99.90;;;;;;5131055;27;19933;-77
2023/10/31 04:58:29;;;;;;;;;;;10.80;99.90;;;;;;5131403;27;19935;-77
2023/10/31 05:00:55;;;;;;;;;;;10.80;99.90;;;;;;5133057;27;19945;-77
2023/10/31 05:03:20;;;;;;;;;;;10.80;99.90;;;;;;5133165;27;19923;-77
2023/10/31 05:05:46;;;;;;;;;;;10.90;99.90;;;;;;5116899;27;19934;-78
2023/10/31 05:08:11;;;;;;;;;;;10.90;99.90;;;;;;5118384;27;19977;-77
2023/10/31 05:10:37;;;;;;;;;;;10.80;99.90;;;;;;5131456;27;19927;-77
2023/10/31 05:13:03;;;;;;;;;;;10.90;99.90;;;;;;5131739;27;19937;-78
2023/10/31 05:15:29;;;;;;;;;;;10.90;99.90;;;;;;5131142;27;19930;-78
2023/10/31 05:17:55;;;;;;;;;;;10.80;99.90;;;;;;5133993;27;19975;-78
2023/10/31 05:20:20;;;;;;;;;;;10.80;99.90;;;;;;5132186;27;19931;-78
2023/10/31 05:22:46;;;;;;;;;;;10.80;99.90;;;;;;5124279;27;19931;-78
2023/10/31 05:25:12;;;;;;;;;;;10.60;99.90;;;;;;5133088;27;19932;-78
2023/10/31 05:27:39;;;;;;;;;;;10.80;99.90;;;;;;5133305;27;20025;-77
2023/10/31 05:30:06;;;;;;;;;;;10.90;99.90;;;;;;5122214;27;19930;-78
2023/10/31 05:32:32;;;;;;;;;;;10.80;99.90;;;;;;5153042;27;20022;-78
2023/10/31 05:34:57;;;;;;;;;;;10.80;99.90;;;;;;5131810;27;20624;-77
2023/10/31 05:37:23;;;;;;;;;;;10.80;99.90;;;;;;5131488;27;19935;-77
2023/10/31 05:39:49;;;;;;;;;;;10.80;99.90;;;;;;5134336;27;19931;-77
2023/10/31 05:42:15;;;;;;;;;;;10.80;99.90;;;;;;5117988;27;19931;-78
2023/10/31 05:44:40;;;;;;;;;;;10.70;99.90;;;;;;5130751;27;20033;-78
2023/10/31 05:47:06;;;;;;;;;;;10.70;99.90;;;;;;5135821;27;19972;-77
2023/10/31 05:49:32;;;;;;;;;;;10.60;99.90;;;;;;5096297;27;20488;-77
2023/10/31 05:51:58;;;;;;;;;;;10.60;99.90;;;;;;5131045;27;19923;-78
2023/10/31 05:54:25;;;;;;;;;;;10.60;99.90;;;;;;5130991;27;19931;-77
2023/10/31 05:56:51;;;;;;;;;;;10.60;99.90;;;;;;5106955;27;19956;-77
2023/10/31 05:59:16;;;;;;;;;;;10.60;99.90;;;;;;5127641;27;19927;-77
2023/10/31 06:01:43;;;;;;;;;;;10.50;99.90;;;;;;5136025;27;19933;-79
2023/10/31 06:04:09;;;;;;;;;;;10.60;99.90;;;;;;5142902;27;19926;-81
2023/10/31 06:06:38;;;;;;;;;;;10.50;99.90;;;;;;5123533;27;20113;-80
2023/10/31 06:09:04;;;;;;;;;;;10.50;99.90;;;;;;5123108;27;20385;-82
2023/10/31 06:11:30;;;;;;;;;;;10.50;99.90;;;;;;5136106;27;20237;-79
2023/10/31 06:13:55;;;;;;;;;;;10.50;99.90;;;;;;5151375;27;20459;-80
2023/10/31 06:16:21;;;;;;;;;;;10.50;99.90;;;;;;5150936;27;20066;-79
2023/10/31 06:18:47;;;;;;;;;;;10.50;99.90;;;;;;5117190;27;20260;-80
2023/10/31 06:21:12;;;;;;;;;;;10.50;99.90;;;;;;5129530;27;19938;-80
2023/10/31 06:23:38;;;;;;;;;;;10.50;99.90;;;;;;5132813;27;20022;-80
2023/10/31 06:26:04;;;;;;;;;;;10.50;99.90;;;;;;5133643;27;20340;-79
2023/10/31 06:28:29;;;;;;;;;;;10.50;99.90;;;;;;5119119;27;20369;-80
2023/10/31 06:30:55;;;;;;;;;;;10.50;99.90;;;;;;5128121;27;19998;-79
2023/10/31 06:33:21;;;;;;;;;;;10.50;99.90;;;;;;5128347;27;19934;-79
2023/10/31 06:35:47;;;;;;;;;;;10.50;99.90;;;;;;5129580;27;20429;-79
2023/10/31 06:38:13;;;;;;;;;;;10.40;99.90;;;;;;5101979;27;19937;-76
2023/10/31 06:40:38;;;;;;;;;;;10.40;99.90;;;;;;5112965;27;20133;-77
2023/10/31 06:43:10;;;;;;;;;;;10.40;99.90;;;;;;5114842;27;19953;-81
2023/10/31 06:45:35;;;;;;;;;;;10.50;99.90;;;;;;5104615;27;19923;-81
2023/10/31 06:48:02;;;;;;;;;;;10.40;99.90;;;;;;5115306;27;19923;-78
2023/10/31 06:50:28;;;;;;;;;;;10.40;99.90;;;;;;5115563;27;19926;-79
2023/10/31 06:53:00;;;;;;;;;;;10.50;99.90;;;;;;5103806;27;19942;-79
2023/10/31 06:55:25;;;;;;;;;;;10.50;99.90;;;;;;5131402;27;19926;-80
2023/10/31 06:57:51;;;;;;;;;;;10.50;99.90;;;;;;5148248;27;20445;-80
2023/10/31 07:00:17;;;;;;;;;;;10.60;99.90;;;;;;5114680;27;19927;-78
2023/10/31 07:02:43;;;;;;;;;;;10.60;99.90;;;;;;5130452;27;19931;-78
2023/10/31 07:05:08;;;;;;;;;;;10.60;99.90;;;;;;5128724;27;19934;-81
2023/10/31 07:07:34;;;;;;;;;;;10.60;99.90;;;;;;5119702;27;19938;-80
2023/10/31 07:09:59;;;;;;;;;;;10.60;99.90;;;;;;5132043;27;19931;-80
2023/10/31 07:12:25;;;;;;;;;;;10.60;99.90;;;;;;5130170;27;19927;-79
2023/10/31 07:14:50;;;;;;;;;;;10.60;99.90;;;;;;5130146;27;19927;-79
2023/10/31 07:17:16;;;;;;;;;;;10.60;99.90;;;;;;5131845;27;19923;-79
2023/10/31 07:19:42;;;;;;;;;;;10.70;99.90;;;;;;5132934;27;19927;-77
2023/10/31 07:22:09;;;;;;;;;;;10.70;99.90;;;;;;5153414;27;20230;-77
2023/10/31 07:24:36;;;;;;;;;;;10.60;99.90;;;;;;5153457;27;20381;-77
2023/10/31 07:27:01;;;;;;;;;;;10.70;99.90;;;;;;5109172;27;19970;-75
2023/10/31 07:29:27;;;;;;;;;;;10.70;99.90;;;;;;5107097;27;20014;-75
2023/10/31 07:31:59;;;;;;;;;;;10.70;99.90;;;;;;5125829;27;20048;-77
2023/10/31 07:34:25;;;;;;;;;;;10.70;99.90;;;;;;5121998;27;20281;-76
2023/10/31 07:36:51;;;;;;;;;;;10.70;99.90;;;;;;5120125;27;19927;-77
2023/10/31 07:39:17;;;;;;;;;;;10.70;99.90;;;;;;5131548;27;20099;-79
2023/10/31 07:41:42;;;;;;;;;;;10.80;99.90;;;;;;5136851;27;19927;-79
2023/10/31 07:44:11;;;;;;;;;;;10.80;99.90;;;;;;5154725;27;20014;-77
2023/10/31 07:46:37;;;;;;;;;;;10.80;99.90;;;;;;5152657;27;19926;-78
2023/10/31 07:49:02;;;;;;;;;;;10.80;99.90;;;;;;5136412;27;19992;-76
2023/10/31 07:51:30;;;;;;;;;;;10.80;99.90;;;;;;5141118;27;20037;-76
2023/10/31 07:53:57;;;;;;;;;;;10.80;99.90;;;;;;5117393;27;19927;-76
2023/10/31 07:56:25;;;;;;;;;;;10.80;99.90;;;;;;5117706;27;19930;-77
2023/10/31 07:58:57;;;;;;;;;;;10.80;99.90;;;;;;5118622;27;19923;-78
2023/10/31 08:01:28;;;;;;;;;;;10.80;99.90;;;;;;5139752;27;20434;-78
2023/10/31 08:03:55;;;;;;;;;;;10.90;99.90;;;;;;5125426;27;19926;-78
2023/10/31 08:06:20;;;;;;;;;;;10.90;99.90;;;;;;5135810;27;19934;-80
2023/10/31 08:08:46;;;;;;;;;;;10.90;99.90;;;;;;5123560;27;20018;-80
2023/10/31 08:11:13;;;;;;;;;;;11.00;99.90;;;;;;5151660;27;19933;-81
2023/10/31 08:13:42;;;;;;;;;;;10.90;99.90;;;;;;5155375;27;19923;-75
2023/10/31 08:16:08;;;;;;;;;;;10.90;99.90;;;;;;5156894;27;19922;-80
2023/10/31 08:18:33;;;;;;;;;;;10.80;99.90;;;;;;5131117;27;19937;-81
2023/10/31 08:21:00;;;;;;;;;;;10.80;99.90;;;;;;5134323;27;20018;-81
2023/10/31 08:23:25;;;;;;;;;;;10.80;99.90;;;;;;5106902;27;20022;-79
2023/10/31 08:25:51;;;;;;;;;;;10.80;99.90;;;;;;5123575;27;20293;-81
2023/10/31 08:28:17;;;;;;;;;;;10.80;99.90;;;;;;5115304;27;20376;-81
2023/10/31 08:30:42;;;;;;;;;;;10.90;99.90;;;;;;5132969;27;19934;-80
2023/10/31 08:33:21;;;;;;;;;;;10.90;99.90;;;;;;5108850;27;20310;-78
2023/10/31 08:36:12;;;;;;;;;;;10.80;99.90;;;;;;5146352;27;19926;-77
2023/10/31 08:38:41;;;;;;;;;;;10.90;99.90;;;;;;5105083;27;19933;-83
2023/10/31 08:41:07;;;;;;;;;;;11.00;99.90;;;;;;5104757;27;19931;-84
2023/10/31 08:43:32;;;;;;;;;;;11.00;99.90;;;;;;5119710;27;19923;-82
2023/10/31 08:45:58;;;;;;;;;;;11.00;99.90;;;;;;5106348;27;19923;-84
2023/10/31 08:48:24;;;;;;;;;;;11.00;99.90;;;;;;5117337;27;19935;-83
2023/10/31 08:50:50;;;;;;;;;;;11.00;99.90;;;;;;5118082;27;19927;-83
2023/10/31 08:53:16;;;;;;;;;;;11.00;99.90;;;;;;5132561;27;19972;-84
2023/10/31 08:55:46;;;;;;;;;;;11.00;99.90;;;;;;5113046;27;20281;-84
2023/10/31 08:58:12;;;;;;;;;;;11.00;99.90;;;;;;5118870;27;20043;-84
2023/10/31 09:00:39;;;;;;;;;;;11.00;99.90;;;;;;5118503;27;19927;-84
2023/10/31 09:03:05;;;;;;;;;;;11.10;99.90;;;;;;5107331;27;20049;-85
2023/10/31 09:05:31;;;;;;;;;;;11.20;99.90;;;;;;5100373;27;20064;-84
2023/10/31 09:07:57;;;;;;;;;;;11.20;99.90;;;;;;5149451;27;20404;-86
2023/10/31 09:10:29;;;;;;;;;;;11.20;99.90;;;;;;5108756;27;19934;-84
2023/10/31 09:12:54;;;;;;;;;;;11.20;99.90;;;;;;5118842;27;20274;-86
2023/10/31 09:15:21;;;;;;;;;;;11.20;99.90;;;;;;5103173;27;19934;-84
2023/10/31 09:17:47;;;;;;;;;;;11.30;99.90;;;;;;5129250;27;19926;-83
2023/10/31 09:20:13;;;;;;;;;;;11.30;99.90;;;;;;5118013;27;19927;-85
2023/10/31 09:22:38;;;;;;;;;;;11.30;99.90;;;;;;5117097;27;19940;-86
2023/10/31 09:25:04;;;;;;;;;;;11.20;99.90;;;;;;5115078;27;20011;-84
2023/10/31 09:27:32;;;;;;;;;;;11.20;99.90;;;;;;5116892;27;19931;-84
2023/10/31 09:30:05;;;;;;;;;;;11.10;99.90;;;;;;5119714;27;20442;-84
2023/10/31 09:32:43;;;;;;;;;;;11.20;99.90;;;;;;5116571;27;20039;-81
2023/10/31 09:35:10;;;;;;;;;;;11.30;99.90;;;;;;5119658;27;21023;-83
2023/10/31 09:37:35;;;;;;;;;;;11.30;99.90;;;;;;5116134;27;19997;-84
2023/10/31 09:40:02;;;;;;;;;;;11.30;99.90;;;;;;5136342;27;19978;-84
2023/10/31 09:42:28;;;;;;;;;;;10.50;99.90;;;;;;5108457;27;20022;-85
2023/10/31 09:44:55;;;;;;;;;;;11.30;99.90;;;;;;5115422;27;20010;-83
2023/10/31 09:47:20;;;;;;;;;;;11.30;99.90;;;;;;5122578;27;20847;-83
2023/10/31 09:49:46;;;;;;;;;;;11.30;99.90;;;;;;5102287;27;20035;-82
2023/10/31 09:52:12;;;;;;;;;;;11.20;99.90;;;;;;5138247;27;19979;-82
2023/10/31 09:54:38;;;;;;;;;;;11.40;99.90;;;;;;5107679;27;20320;-84
2023/10/31 09:57:04;;;;;;;;;;;11.50;99.90;;;;;;5120183;27;19927;-83
2023/10/31 09:59:30;;;;;;;;;;;11.60;99.90;;;;;;5132107;27;22153;-84
2023/10/31 10:01:56;;;;;;;;;;;11.80;99.90;;;;;;5153250;27;19923;-83
2023/10/31 10:04:24;;;;;;;;;;;11.90;99.90;;;;;;5132179;27;20562;-75
2023/10/31 10:07:00;;;;;;;;;;;11.90;99.90;;;;;;5103577;27;19930;-82
2023/10/31 10:09:27;;;;;;;;;;;12.00;99.90;;;;;;5150286;27;19923;-80
2023/10/31 10:12:02;;;;;;;;;;;12.00;99.90;;;;;;5120031;27;19948;-81
2023/10/31 10:14:28;;;;;;;;;;;12.00;99.90;;;;;;5136401;27;19927;-83
2023/10/31 10:16:55;;;;;;;;;;;12.00;99.90;;;;;;5119293;27;20008;-83
2023/10/31 10:19:22;;;;;;;;;;;12.00;99.90;;;;;;5129647;27;19923;-83
2023/10/31 10:21:58;;;;;;;;;;;12.00;99.90;;;;;;5133959;27;19931;-84
2023/10/31 10:24:24;;;;;;;;;;;12.00;99.90;;;;;;5116177;27;19969;-85
2023/10/31 10:26:50;;;;;;;;;;;11.90;99.90;;;;;;5102213;27;19956;-85
2023/10/31 10:29:17;;;;;;;;;;;11.90;99.90;;;;;;5130581;27;19927;-83
2023/10/31 10:31:44;;;;;;;;;;;11.80;99.90;;;;;;5121075;27;19926;-83
2023/10/31 10:34:12;;;;;;;;;;;11.80;99.90;;;;;;5129501;27;19979;-83
2023/10/31 10:36:42;;;;;;;;;;;11.80;99.90;;;;;;5115163;27;19931;-83
2023/10/31 10:39:09;;;;;;;;;;;11.70;99.90;;;;;;5130633;27;19923;-83
2023/10/31 10:41:37;;;;;;;;;;;11.80;99.90;;;;;;5116939;27;19931;-82
2023/10/31 10:44:06;;;;;;;;;;;11.70;99.90;;;;;;5118681;27;19938;-84
2023/10/31 10:46:36;;;;;;;;;;;11.70;99.90;;;;;;5131085;27;20298;-82
2023/10/31 10:49:04;;;;;;;;;;;11.70;99.90;;;;;;5115268;27;20281;-83
2023/10/31 10:51:48;;;;;;;;;;;11.70;99.90;;;;;;5115646;27;20385;-82
2023/10/31 10:54:19;;;;;;;;;;;11.70;99.90;;;;;;5133357;27;19934;-83
2023/10/31 10:56:47;;;;;;;;;;;11.70;99.90;;;;;;5134208;27;20345;-81
2023/10/31 10:59:20;;;;;;;;;;;11.70;99.90;;;;;;5137760;27;20490;-80
2023/10/31 11:01:46;;;;;;;;;;;11.80;99.90;;;;;;5118533;27;20920;-79
2023/10/31 11:04:13;;;;;;;;;;;11.90;99.90;;;;;;5122195;27;19935;-82
2023/10/31 11:06:39;;;;;;;;;;;11.90;99.90;;;;;;5134548;27;19930;-83
2023/10/31 11:09:06;;;;;;;;;;;12.10;99.90;;;;;;5134597;27;19927;-83
2023/10/31 11:11:32;;;;;;;;;;;12.20;99.90;;;;;;5151880;27;19923;-84
2023/10/31 11:14:01;;;;;;;;;;;12.30;99.90;;;;;;5117403;27;19931;-85
2023/10/31 11:16:37;;;;;;;;;;;12.30;99.90;;;;;;5105158;27;19983;-81
2023/10/31 11:19:03;;;;;;;;;;;12.30;99.90;;;;;;5117931;27;19927;-84
2023/10/31 11:21:35;;;;;;;;;;;12.40;99.90;;;;;;5120629;27;19979;-83
2023/10/31 11:24:06;;;;;;;;;;;12.50;99.90;;;;;;5118112;27;19957;-85
2023/10/31 11:26:32;;;;;;;;;;;12.50;99.90;;;;;;5123323;27;19927;-84
2023/10/31 11:29:05;;;;;;;;;;;12.50;99.90;;;;;;5121208;27;19970;-82
2023/10/31 11:31:32;;;;;;;;;;;12.50;99.90;;;;;;5124748;27;19927;-85
2023/10/31 11:33:58;;;;;;;;;;;12.50;99.90;;;;;;5136369;27;20319;-84
2023/10/31 11:36:27;;;;;;;;;;;12.60;99.90;;;;;;5153765;27;20006;-83
2023/10/31 11:39:09;;;;;;;;;;;12.50;99.90;;;;;;5104600;27;19973;-84
2023/10/31 11:41:35;;;;;;;;;;;12.60;99.90;;;;;;5139425;27;20005;-78
2023/10/31 11:44:02;;;;;;;;;;;12.70;99.90;;;;;;5136503;27;20053;-77
2023/10/31 11:46:28;;;;;;;;;;;12.70;99.90;;;;;;5140018;27;20927;-78
2023/10/31 11:48:59;;;;;;;;;;;12.80;99.90;;;;;;5121767;27;19931;-77
2023/10/31 11:51:25;;;;;;;;;;;12.90;99.90;;;;;;5121253;27;19926;-78
2023/10/31 11:53:52;;;;;;;;;;;13.20;99.90;;;;;;5123626;27;20037;-78
2023/10/31 11:56:17;;;;;;;;;;;13.40;99.90;;;;;;5124609;27;20098;-77
2023/10/31 11:58:43;;;;;;;;;;;13.70;99.90;;;;;;5136996;27;20022;-79
2023/10/31 12:01:09;;;;;;;;;;;14.20;99.90;;;;;;5155022;27;20281;-78
2023/10/31 12:03:39;;;;;;;;;;;14.40;99.90;;;;;;5157389;27;19993;-79
2023/10/31 12:06:06;;;;;;;;;;;14.30;99.90;;;;;;5140260;27;19927;-79
2023/10/31 12:08:31;;;;;;;;;;;14.40;99.90;;;;;;5122792;27;20014;-79
2023/10/31 12:11:07;;;;;;;;;;;14.50;99.90;;;;;;5143230;27;19931;-78
2023/10/31 12:13:33;;;;;;;;;;;14.40;99.90;;;;;;5124861;27;19927;-79
2023/10/31 12:16:00;;;;;;;;;;;14.40;99.90;;;;;;5139436;27;19923;-79
2023/10/31 12:18:29;;;;;;;;;;;14.40;99.90;;;;;;5138000;27;20499;-79
2023/10/31 12:20:55;;;;;;;;;;;14.40;99.90;;;;;;5136961;27;19970;-79
2023/10/31 12:23:21;;;;;;;;;;;14.30;99.90;;;;;;5139013;27;19927;-77
2023/10/31 12:25:50;;;;;;;;;;;14.10;99.90;;;;;;5140283;27;19938;-78
2023/10/31 12:28:26;;;;;;;;;;;14.00;99.90;;;;;;5129525;27;20381;-79
2023/10/31 12:30:54;;;;;;;;;;;13.80;99.90;;;;;;5143947;27;19927;-79
2023/10/31 12:33:21;;;;;;;;;;;13.70;99.90;;;;;;5120506;27;19927;-79
2023/10/31 12:35:48;;;;;;;;;;;13.60;99.90;;;;;;5130009;27;19930;-79
2023/10/31 12:38:14;;;;;;;;;;;13.50;99.90;;;;;;5161918;27;19937;-78
2023/10/31 12:40:40;;;;;;;;;;;13.50;99.90;;;;;;5131451;27;19949;-78
2023/10/31 12:43:06;;;;;;;;;;;13.50;99.90;;;;;;5127303;27;19955;-79
2023/10/31 12:45:33;;;;;;;;;;;13.50;99.90;;;;;;5124005;27;19997;-79
2023/10/31 12:48:02;;;;;;;;;;;13.40;99.90;;;;;;5130066;27;20009;-79
2023/10/31 12:50:28;;;;;;;;;;;13.40;99.90;;;;;;5143429;27;19933;-79
2023/10/31 12:52:59;;;;;;;;;;;13.40;99.90;;;;;;5161408;27;19974;-78
2023/10/31 12:55:29;;;;;;;;;;;13.30;99.90;;;;;;5128770;27;19923;-79
2023/10/31 12:57:56;;;;;;;;;;;13.30;99.90;;;;;;5144522;27;19935;-79
2023/10/31 13:00:25;;;;;;;;;;;13.30;99.90;;;;;;5132822;27;20026;-79
2023/10/31 13:03:01;;;;;;;;;;;13.30;99.90;;;;;;5142305;27;19922;-78
2023/10/31 13:05:28;;;;;;;;;;;13.20;99.90;;;;;;5131056;27;20038;-77
2023/10/31 13:07:55;;;;;;;;;;;13.30;99.90;;;;;;5144168;27;19931;-78
2023/10/31 13:10:24;;;;;;;;;;;13.50;99.90;;;;;;5144426;27;19944;-78
2023/10/31 13:12:50;;;;;;;;;;;14.10;99.90;;;;;;5151618;27;19927;-79
2023/10/31 13:15:18;;;;;;;;;;;14.60;99.90;;;;;;5162658;27;19923;-79
2023/10/31 13:17:44;;;;;;;;;;;15.00;99.90;;;;;;5144450;27;19931;-78
2023/10/31 13:20:13;;;;;;;;;;;15.30;99.90;;;;;;5144290;27;19923;-78
2023/10/31 13:22:40;;;;;;;;;;;15.20;99.90;;;;;;5129993;27;19923;-78
2023/10/31 13:25:07;;;;;;;;;;;15.10;99.90;;;;;;5139604;27;19993;-78
2023/10/31 13:27:37;;;;;;;;;;;15.00;99.90;;;;;;5146490;27;20453;-78
2023/10/31 13:30:03;;;;;;;;;;;15.10;99.90;;;;;;5142851;27;19934;-78
2023/10/31 13:32:29;;;;;;;;;;;15.30;99.90;;;;;;5142782;27;19937;-77
2023/10/31 13:38:35;;;;;;;;;;;15.30;99.90;;;;;;5114078;27;20250;-78
2023/10/31 13:41:40;;;;;;;;;;;15.20;99.90;;;;;;5158972;27;19937;-77
2023/10/31 13:44:49;;;;;;;;;;;14.90;99.90;;;;;;5151983;27;19932;-77
2023/10/31 13:47:57;;;;;;;;;;;14.60;99.90;;;;;;5161592;27;20021;-76
2023/10/31 13:53:41;;;;;;;;;;;14.20;99.90;;;;;;5159989;27;19978;-78
2023/10/31 13:56:59;;;;;;;;;;;14.00;99.90;;;;;;5159194;27;19941;-77
2023/10/31 14:00:19;;;;;;;;;;;13.80;99.90;;;;;;5152041;27;20042;-78
2023/10/31 14:03:15;;;;;;;;;;;13.60;99.90;;;;;;5150719;27;19934;-79
2023/10/31 14:06:10;;;;;;;;;;;13.50;99.90;;;;;;5154931;27;19975;-75
2023/10/31 14:08:36;;;;;;;;;;;13.40;99.90;;;;;;5152971;27;19927;-77
2023/10/31 14:11:02;;;;;;;;;;;13.30;99.90;;;;;;5134016;27;20085;-78
2023/10/31 14:13:28;;;;;;;;;;;13.20;99.90;;;;;;5115941;27;19926;-78
2023/10/31 14:15:55;;;;;;;;;;;13.10;99.90;;;;;;5142126;27;20292;-79
2023/10/31 14:18:21;;;;;;;;;;;13.10;99.90;;;;;;5122462;27;19931;-77
2023/10/31 14:20:46;;;;;;;;;;;13.00;99.90;;;;;;5134008;27;19934;-77
2023/10/31 14:23:12;;;;;;;;;;;13.00;99.90;;;;;;5136550;27;20437;-78
2023/10/31 14:25:41;;;;;;;;;;;12.90;99.90;;;;;;5124554;27;20228;-78